Darstellungsparameter: Aktuell verwendete Einstellungen:
Skalierung der Graphiken ... ?
xyx+y,   Skalierungsfaktor:      Skalierung: Modus: x, Faktor: 1
Darstellungszeitraum ... ?
Vom - - bis: - -   Zeitraum: 24.02.2003 - 06.12.2003
Min/Max/Avg-Anzeige ... ?
Zeige MMA aktuell
Zeige MMA Monat
Zeige MMA alles
Zeige --A aktuell
Zeige --A Monat
Zeige --A alles
Keine MMA-Anzeige
MMA:
Keine MMA-Graphiken
MMA-Basis: 24.02.2003 - 06.12.2003
Quicknavigation für Darstellung... ?
Tage:      1T, 2T, 3T, 5T -1T -2T -3T -5T +1T +2T +3T +5T
Wochen: 1W, 2W, 3W -1W -2W -3W +1W +2W +3W
Monate: 1M, 3M, 6M -1M -3M -6M +1M +3M +6M
Jahre:    1J, 3J, 5J, 10J -1J -3J -5J -10J +1J +3J +5J +10J
Nutze für die Darstellung ... ?
Originaldaten oder ...
Mittelwerte Minima Maxima auf...
Stundenbasis Tagesbasis Wochenbasis
Monatsbasis Jahresbasis      Datenbasis: Mittelwerte auf Tagesbasis
Darstellen als:
Statistik (Auto) Statistik J:M      Darstellung:

Der gewünschte Datumsbereich war nicht gültig/verfügbar und wurde korrigiert....
Das angegebene Startdatum (07.12.2002 00:00:00) liegt vor dem ersten Datenbankeintrag.


Zur Graphik,    zurück zur Übersicht aller Sensoren.
 
Tabellarische Datenbersicht: ?
 
Sensor: Nr:Datum:Temp:Abs-Feuchte:Windchill:Wind:
Aussen-T/F 1 24-02-2003 00:00:00 3.08396 C 3.72 g/m*3 3.08 C 0 km/h
2 25-02-2003 00:00:00 1.22845 C 3.23 g/m*3 1.23 C 0 km/h
3 26-02-2003 00:00:00 2.00653 C 3.38 g/m*3 2.01 C 0 km/h
4 27-02-2003 00:00:00 6.02453 C 4.37 g/m*3 6.02 C 0 km/h
5 28-02-2003 00:00:00 7.01339 C 5.38 g/m*3 7.01 C 0 km/h
6 01-03-2003 00:00:00 7.99123 C 6.65 g/m*3 7.99 C 0 km/h
7 02-03-2003 00:00:00 8.58947 C 7.04 g/m*3 8.59 C 0 km/h
8 03-03-2003 00:00:00 5.41134 C 5.75 g/m*3 5.41 C 0 km/h
9 04-03-2003 00:00:00 6.18844 C 5.28 g/m*3 6.19 C 0 km/h
10 05-03-2003 00:00:00 11.37692 C 6.75 g/m*3 11.38 C 0 km/h
11 06-03-2003 00:00:00 8.17302 C 6 g/m*3 8.17 C 0 km/h
12 07-03-2003 00:00:00 5.52766 C 5.16 g/m*3 5.53 C 0 km/h
13 08-03-2003 00:00:00 7.57368 C 4.78 g/m*3 7.57 C 0 km/h
14 09-03-2003 00:00:00 9.86698 C 5.31 g/m*3 9.87 C 0 km/h
15 10-03-2003 00:00:00 10.51917 C 6.01 g/m*3 10.52 C 0 km/h
16 11-03-2003 00:00:00 12.31167 C 6.94 g/m*3 12.31 C 0 km/h
17 12-03-2003 00:00:00 9.19725 C 5.93 g/m*3 9.2 C 0 km/h
18 13-03-2003 00:00:00 7.42917 C 4.31 g/m*3 7.43 C 0 km/h
19 14-03-2003 00:00:00 4.74417 C 3.48 g/m*3 4.74 C 0 km/h
20 15-03-2003 00:00:00 5.11261 C 3.79 g/m*3 5.11 C 0 km/h
21 16-03-2003 00:00:00 5.46583 C 4.01 g/m*3 5.47 C 0 km/h
22 17-03-2003 00:00:00 6.59389 C 4.25 g/m*3 6.59 C 0 km/h
23 18-03-2003 00:00:00 4.7831 C 4.36 g/m*3 4.78 C 0 km/h
24 19-03-2003 00:00:00 6.72437 C 4.61 g/m*3 6.72 C 0 km/h
25 20-03-2003 00:00:00 5.83083 C 4.68 g/m*3 5.83 C 0 km/h
Sensor: Nr:Datum:Temp:Abs-Feuchte:Windchill:Wind:
Aussen-T/F 26 21-03-2003 00:00:00 5.31271 C 4.09 g/m*3 5.31 C 0 km/h
27 22-03-2003 00:00:00 6.51 C 3.09 g/m*3 6.51 C 0 km/h
28 23-03-2003 00:00:00 7.7916 C 3.06 g/m*3 7.79 C 0 km/h
29 24-03-2003 00:00:00 9.90917 C 4.16 g/m*3 9.91 C 0 km/h
30 25-03-2003 00:00:00 12.45126 C 6.38 g/m*3 12.45 C 0 km/h
31 26-03-2003 00:00:00 12.51833 C 7.65 g/m*3 12.52 C 0 km/h
32 27-03-2003 00:00:00 12.4042 C 7.24 g/m*3 12.4 C 0 km/h
33 28-03-2003 00:00:00 13.62333 C 6.91 g/m*3 13.62 C 0 km/h
34 29-03-2003 00:00:00 15.55652 C 8.2 g/m*3 15.56 C 0 km/h
35 30-03-2003 00:00:00 13.94188 C 8.06 g/m*3 13.94 C 0 km/h
36 31-03-2003 00:00:00 10.48833 C 5.2 g/m*3 10.49 C 0 km/h
37 01-04-2003 00:00:00 9.86224 C 5.26 g/m*3 9.86 C 0 km/h
38 02-04-2003 00:00:00 5.81958 C 5.87 g/m*3 5.82 C 0 km/h
39 03-04-2003 00:00:00 5.28292 C 4.77 g/m*3 5.28 C 0 km/h
40 04-04-2003 00:00:00 6.50335 C 4.41 g/m*3 6.5 C 0 km/h
41 05-04-2003 00:00:00 8.93776 C 5.11 g/m*3 8.94 C 0 km/h
42 06-04-2003 00:00:00 8.6063 C 3.55 g/m*3 8.61 C 0 km/h
43 25-04-2003 00:00:00 26.39362 C 6.64 g/m*3 26.39 C 0 km/h
44 26-04-2003 00:00:00 15.08169 C 9.61 g/m*3 15.08 C 0 km/h
45 27-04-2003 00:00:00 12.72168 C 8.24 g/m*3 12.72 C 0 km/h
46 28-04-2003 00:00:00 17.06276 C 8.73 g/m*3 17.06 C 0 km/h
47 29-04-2003 00:00:00 17.9 C 8.79 g/m*3 17.9 C 0 km/h
48 30-04-2003 00:00:00 14.06319 C 10.01 g/m*3 14.06 C 0 km/h
49 01-05-2003 00:00:00 13.28944 C 7.35 g/m*3 13.29 C 0 km/h
50 02-05-2003 00:00:00 14.91042 C 7.56 g/m*3 14.91 C 0 km/h
Sensor: Nr:Datum:Temp:Abs-Feuchte:Windchill:Wind:
Aussen-T/F 51 03-05-2003 00:00:00 14.75944 C 5.98 g/m*3 14.76 C 0 km/h
52 04-05-2003 00:00:00 17.16901 C 7.25 g/m*3 17.17 C 0 km/h
53 05-05-2003 00:00:00 19.43681 C 8.95 g/m*3 19.44 C 0 km/h
54 06-05-2003 00:00:00 15.45874 C 9.46 g/m*3 15.46 C 0 km/h
55 07-05-2003 00:00:00 17.27569 C 8.9 g/m*3 17.28 C 0 km/h
56 08-05-2003 00:00:00 18.80278 C 9.79 g/m*3 18.8 C 0 km/h
57 09-05-2003 00:00:00 15.69375 C 10.2 g/m*3 15.69 C 0 km/h
58 10-05-2003 00:00:00 16.18112 C 8.23 g/m*3 16.18 C 0 km/h
59 11-05-2003 00:00:00 15.48322 C 6.96 g/m*3 15.48 C 0 km/h
60 12-05-2003 00:00:00 16.44028 C 7.63 g/m*3 16.44 C 0 km/h
61 13-05-2003 00:00:00 11.88042 C 6.89 g/m*3 11.88 C 0 km/h
62 14-05-2003 00:00:00 9.76224 C 6.27 g/m*3 9.76 C 0 km/h
63 15-05-2003 00:00:00 12.75944 C 6.15 g/m*3 12.76 C 0 km/h
64 16-05-2003 00:00:00 13.02917 C 6.2 g/m*3 13.03 C 0 km/h
65 17-05-2003 00:00:00 14.35594 C 7.59 g/m*3 14.36 C 0 km/h
66 18-05-2003 00:00:00 16.15714 C 9.6 g/m*3 16.16 C 0 km/h
67 19-05-2003 00:00:00 13.69172 C 10.42 g/m*3 13.69 C 0 km/h
68 20-05-2003 00:00:00 12.97431 C 7.17 g/m*3 12.97 C 0 km/h
69 21-05-2003 00:00:00 11.90559 C 8.02 g/m*3 11.91 C 0 km/h
70 22-05-2003 00:00:00 13.89792 C 10.1 g/m*3 13.9 C 0 km/h
71 23-05-2003 00:00:00 18.97762 C 9.14 g/m*3 18.98 C 0 km/h
72 24-05-2003 00:00:00 19.54577 C 9.98 g/m*3 19.55 C 0 km/h
73 25-05-2003 00:00:00 16.0137 C 8.9 g/m*3 16.01 C 0 km/h
74 26-05-2003 00:00:00 17.77413 C 8.37 g/m*3 17.77 C 0 km/h
75 27-05-2003 00:00:00 19.34444 C 9.55 g/m*3 19.34 C 0 km/h
Sensor: Nr:Datum:Temp:Abs-Feuchte:Windchill:Wind:
Aussen-T/F 76 28-05-2003 00:00:00 20.5951 C 9.97 g/m*3 20.6 C 0 km/h
77 29-05-2003 00:00:00 22.73056 C 10.02 g/m*3 22.73 C 0 km/h
78 30-05-2003 00:00:00 23.71367 C 11.58 g/m*3 23.71 C 0 km/h
79 31-05-2003 00:00:00 21.47902 C 13.38 g/m*3 21.48 C 0 km/h
80 01-06-2003 00:00:00 23.35175 C 13.24 g/m*3 23.35 C 0 km/h
81 02-06-2003 00:00:00 23.57394 C 12.51 g/m*3 23.57 C 0 km/h
82 03-06-2003 00:00:00 23.12153 C 13.79 g/m*3 23.12 C 0 km/h
83 04-06-2003 00:00:00 25.04755 C 13.87 g/m*3 25.05 C 0 km/h
84 05-06-2003 00:00:00 22.86621 C 12.83 g/m*3 22.87 C 0 km/h
85 06-06-2003 00:00:00 22.71608 C 12.29 g/m*3 22.72 C 0 km/h
86 07-06-2003 00:00:00 24.90694 C 13.21 g/m*3 24.91 C 0 km/h
87 08-06-2003 00:00:00 22.7993 C 13.98 g/m*3 22.8 C 0 km/h
88 09-06-2003 00:00:00 19.85139 C 8.47 g/m*3 19.85 C 0 km/h
89 10-06-2003 00:00:00 21.51389 C 12.3 g/m*3 21.51 C 0 km/h
90 11-06-2003 00:00:00 23.96899 C 13.08 g/m*3 23.97 C 0 km/h
91 12-06-2003 00:00:00 22.99412 C 13.7 g/m*3 22.99 C 0 km/h
92 13-06-2003 00:00:00 22.87647 C 11.72 g/m*3 22.88 C 0 km/h
93 14-06-2003 00:00:00 19.34812 C 11.47 g/m*3 19.35 C 0 km/h
94 15-06-2003 00:00:00 22.11274 C 11.31 g/m*3 22.11 C 0 km/h
95 16-06-2003 00:00:00 22.74242 C 9.22 g/m*3 22.74 C 0 km/h
96 17-06-2003 00:00:00 22.74154 C 10.64 g/m*3 22.74 C 0 km/h
97 18-06-2003 00:00:00 20.45909 C 12.13 g/m*3 20.46 C 0 km/h
98 19-06-2003 00:00:00 20.73846 C 11.16 g/m*3 20.74 C 0 km/h
99 20-06-2003 00:00:00 20.76769 C 8.96 g/m*3 20.77 C 0 km/h
100 21-06-2003 00:00:00 18.57692 C 7.61 g/m*3 18.58 C 0 km/h
Sensor: Nr:Datum:Temp:Abs-Feuchte:Windchill:Wind:
Aussen-T/F 101 22-06-2003 00:00:00 22.50152 C 9.54 g/m*3 22.5 C 0 km/h
102 23-06-2003 00:00:00 23.88438 C 11.21 g/m*3 23.88 C 0 km/h
103 24-06-2003 00:00:00 22.05758 C 10.02 g/m*3 22.06 C 0 km/h
104 25-06-2003 00:00:00 21.8 C 9.1 g/m*3 21.8 C 0 km/h
105 26-06-2003 00:00:00 23.58 C 9.35 g/m*3 23.58 C 0 km/h
106 27-06-2003 00:00:00 22.64923 C 9.95 g/m*3 22.65 C 0 km/h
107 28-06-2003 00:00:00 22.94308 C 12.05 g/m*3 22.94 C 0 km/h
108 29-06-2003 00:00:00 25.77699 C 10.4 g/m*3 25.78 C 0 km/h
109 30-06-2003 00:00:00 22.11883 C 12.24 g/m*3 22.12 C 0 km/h
110 01-07-2003 00:00:00 19.41218 C 10.7 g/m*3 19.41 C 0 km/h
111 02-07-2003 00:00:00 17.99791 C 9.76 g/m*3 18 C 0 km/h
112 03-07-2003 00:00:00 17.02667 C 10.35 g/m*3 17.03 C 0 km/h
113 04-07-2003 00:00:00 17.05607 C 10.28 g/m*3 17.06 C 0 km/h
114 05-07-2003 00:00:00 16.84059 C 10.64 g/m*3 16.84 C 0 km/h
115 06-07-2003 00:00:00 20.31743 C 9.59 g/m*3 20.32 C 0 km/h
116 07-07-2003 00:00:00 21.54861 C 9.65 g/m*3 21.55 C 0 km/h
117 08-07-2003 00:00:00 21.54825 C 9.54 g/m*3 21.55 C 0 km/h
118 09-07-2003 00:00:00 20.83077 C 10.49 g/m*3 20.83 C 0 km/h
119 10-07-2003 00:00:00 21.87972 C 10.1 g/m*3 21.88 C 0 km/h
120 11-07-2003 00:00:00 22.96875 C 10.61 g/m*3 22.97 C 0 km/h
121 12-07-2003 00:00:00 21.7951 C 8.51 g/m*3 21.8 C 0 km/h
122 13-07-2003 00:00:00 22.62708 C 9.02 g/m*3 22.63 C 0 km/h
123 14-07-2003 00:00:00 24.49648 C 8.2 g/m*3 24.5 C 0 km/h
124 15-07-2003 00:00:00 25.82168 C 8.71 g/m*3 25.82 C 0 km/h
125 16-07-2003 00:00:00 26.9125 C 9.52 g/m*3 26.91 C 0 km/h
Sensor: Nr:Datum:Temp:Abs-Feuchte:Windchill:Wind:
Aussen-T/F 126 17-07-2003 00:00:00 21.73147 C 9.97 g/m*3 21.73 C 0 km/h
127 18-07-2003 00:00:00 23.17361 C 9.24 g/m*3 23.17 C 0 km/h
128 19-07-2003 00:00:00 25.16783 C 9.49 g/m*3 25.17 C 0 km/h
129 20-07-2003 00:00:00 25.17292 C 10.49 g/m*3 25.17 C 0 km/h
130 21-07-2003 00:00:00 24.85804 C 13.44 g/m*3 24.86 C 0 km/h
131 22-07-2003 00:00:00 23.93147 C 13.41 g/m*3 23.93 C 0 km/h
132 23-07-2003 00:00:00 23.35208 C 11.09 g/m*3 23.35 C 0 km/h
133 24-07-2003 00:00:00 21.31549 C 11.76 g/m*3 21.32 C 0 km/h
134 25-07-2003 00:00:00 21.11064 C 11.64 g/m*3 21.11 C 0 km/h
135 26-07-2003 00:00:00 21.33333 C 12.47 g/m*3 21.33 C 0 km/h
136 27-07-2003 00:00:00 20.99861 C 14.27 g/m*3 21 C 0 km/h
137 28-07-2003 00:00:00 20.96667 C 9.78 g/m*3 20.97 C 0 km/h
138 29-07-2003 00:00:00 21.55556 C 8.86 g/m*3 21.56 C 0 km/h
139 30-07-2003 00:00:00 19.87292 C 11.23 g/m*3 19.87 C 0 km/h
140 31-07-2003 00:00:00 22.51319 C 13.35 g/m*3 22.51 C 0 km/h
141 01-08-2003 00:00:00 24.69658 C 11.82 g/m*3 24.7 C 0 km/h
142 02-08-2003 00:00:00 26.31181 C 11.89 g/m*3 26.31 C 0 km/h
143 03-08-2003 00:00:00 26.94236 C 12.66 g/m*3 26.94 C 0 km/h
144 04-08-2003 00:00:00 27.77133 C 12.6 g/m*3 27.77 C 0 km/h
145 05-08-2003 00:00:00 27.84375 C 11.54 g/m*3 27.84 C 0 km/h
146 06-08-2003 00:00:00 27.87292 C 11.76 g/m*3 27.87 C 0 km/h
147 07-08-2003 00:00:00 28.54167 C 10.88 g/m*3 28.54 C 0 km/h
148 08-08-2003 00:00:00 28.9625 C 11.22 g/m*3 28.96 C 0 km/h
149 09-08-2003 00:00:00 28.56528 C 12.44 g/m*3 28.57 C 0 km/h
150 10-08-2003 00:00:00 27.40347 C 10.21 g/m*3 27.4 C 0 km/h
Sensor: Nr:Datum:Temp:Abs-Feuchte:Windchill:Wind:
Aussen-T/F 151 11-08-2003 00:00:00 26.68333 C 9.8 g/m*3 26.68 C 0 km/h
152 12-08-2003 00:00:00 28.33655 C 10.48 g/m*3 28.34 C 0 km/h
153 13-08-2003 00:00:00 27.60694 C 10.9 g/m*3 27.61 C 0 km/h
154 14-08-2003 00:00:00 24.19301 C 10.36 g/m*3 24.19 C 0 km/h
155 15-08-2003 00:00:00 21.19583 C 8.05 g/m*3 21.2 C 0 km/h
156 16-08-2003 00:00:00 20.93819 C 8.03 g/m*3 20.94 C 0 km/h
157 17-08-2003 00:00:00 21.95417 C 8.71 g/m*3 21.95 C 0 km/h
158 18-08-2003 00:00:00 19.58194 C 13.98 g/m*3 19.58 C 0 km/h
159 19-08-2003 00:00:00 21.01528 C 12.66 g/m*3 21.02 C 0 km/h
160 20-08-2003 00:00:00 20.52164 C 9.87 g/m*3 20.52 C 0 km/h
161 21-08-2003 00:00:00 20.59583 C 9.54 g/m*3 20.6 C 0 km/h
162 22-08-2003 00:00:00 20.25 C 9.6 g/m*3 20.25 C 0 km/h
163 23-08-2003 00:00:00 21.61417 C 11.02 g/m*3 21.61 C 0 km/h
164 24-08-2003 00:00:00 20.755 C 9.76 g/m*3 20.76 C 0 km/h
165 25-08-2003 00:00:00 20.085 C 8.94 g/m*3 20.09 C 0 km/h
166 26-08-2003 00:00:00 20.6475 C 9.1 g/m*3 20.65 C 0 km/h
167 27-08-2003 00:00:00 18.16083 C 9.11 g/m*3 18.16 C 0 km/h
168 28-08-2003 00:00:00 18.705 C 10.16 g/m*3 18.7 C 0 km/h
169 29-08-2003 00:00:00 17.34333 C 12.45 g/m*3 17.34 C 0 km/h
170 30-08-2003 00:00:00 14.92583 C 10.45 g/m*3 14.93 C 0 km/h
171 31-08-2003 00:00:00 14.155 C 8.69 g/m*3 14.16 C 0 km/h
172 01-09-2003 00:00:00 13.11417 C 8.14 g/m*3 13.11 C 0 km/h
173 02-09-2003 00:00:00 14.14167 C 8.13 g/m*3 14.14 C 0 km/h
174 03-09-2003 00:00:00 14.39 C 7.38 g/m*3 14.39 C 0 km/h
175 04-09-2003 00:00:00 16.6175 C 8.24 g/m*3 16.62 C 0 km/h
Sensor: Nr:Datum:Temp:Abs-Feuchte:Windchill:Wind:
Aussen-T/F 176 05-09-2003 00:00:00 17.74833 C 8.41 g/m*3 17.75 C 0 km/h
177 06-09-2003 00:00:00 19.795 C 10.64 g/m*3 19.8 C 0 km/h
178 07-09-2003 00:00:00 18.97417 C 10.92 g/m*3 18.97 C 0 km/h
179 08-09-2003 00:00:00 16.28824 C 10.4 g/m*3 16.29 C 0 km/h
180 09-09-2003 00:00:00 15.21417 C 9.12 g/m*3 15.21 C 0 km/h
181 10-09-2003 00:00:00 14.80667 C 9.88 g/m*3 14.81 C 0 km/h
182 11-09-2003 00:00:00 14.8625 C 8.4 g/m*3 14.86 C 0 km/h
183 12-09-2003 00:00:00 16.89667 C 8.98 g/m*3 16.9 C 0 km/h
184 13-09-2003 00:00:00 17.87 C 8.81 g/m*3 17.87 C 0 km/h
185 14-09-2003 00:00:00 15.66083 C 8.48 g/m*3 15.66 C 0 km/h
186 15-09-2003 00:00:00 16.91818 C 9.43 g/m*3 16.92 C 0 km/h
187 16-09-2003 00:00:00 16.72397 C 9.58 g/m*3 16.72 C 0 km/h
188 17-09-2003 00:00:00 17.685 C 9.86 g/m*3 17.68 C 0 km/h
189 18-09-2003 00:00:00 18.04583 C 9.06 g/m*3 18.05 C 0 km/h
190 19-09-2003 00:00:00 19.47083 C 9.69 g/m*3 19.47 C 0 km/h
191 20-09-2003 00:00:00 20.25882 C 10.57 g/m*3 20.26 C 0 km/h
192 21-09-2003 00:00:00 20.695 C 9.57 g/m*3 20.7 C 0 km/h
193 22-09-2003 00:00:00 18.3225 C 10.88 g/m*3 18.32 C 0 km/h
194 23-09-2003 00:00:00 13.95333 C 8.5 g/m*3 13.95 C 0 km/h
195 24-09-2003 00:00:00 10.7375 C 6.94 g/m*3 10.74 C 0 km/h
196 25-09-2003 00:00:00 11.6925 C 6.73 g/m*3 11.69 C 0 km/h
197 26-09-2003 00:00:00 12.8025 C 7.07 g/m*3 12.8 C 0 km/h
198 27-09-2003 00:00:00 13.93417 C 8.15 g/m*3 13.93 C 0 km/h
199 28-09-2003 00:00:00 14.33554 C 9.53 g/m*3 14.34 C 0 km/h
200 29-09-2003 00:00:00 13.1625 C 7.49 g/m*3 13.16 C 0 km/h
Sensor: Nr:Datum:Temp:Abs-Feuchte:Windchill:Wind:
Aussen-T/F 201 30-09-2003 00:00:00 12.02083 C 7.43 g/m*3 12.02 C 0 km/h
202 01-10-2003 00:00:00 10.64793 C 7.98 g/m*3 10.65 C 0 km/h
203 02-10-2003 00:00:00 16.3025 C 11.21 g/m*3 16.3 C 0 km/h
204 03-10-2003 00:00:00 16.015 C 10.52 g/m*3 16.02 C 0 km/h
205 04-10-2003 00:00:00 12.51583 C 8.78 g/m*3 12.52 C 0 km/h
206 05-10-2003 00:00:00 9.27917 C 6.68 g/m*3 9.28 C 0 km/h
207 06-10-2003 00:00:00 7.6025 C 6.17 g/m*3 7.6 C 0 km/h
208 07-10-2003 00:00:00 8.125 C 6.67 g/m*3 8.13 C 0 km/h
209 08-10-2003 00:00:00 9.46694 C 6.93 g/m*3 9.47 C 0 km/h
210 09-10-2003 00:00:00 12.52833 C 8.38 g/m*3 12.53 C 0 km/h
211 10-10-2003 00:00:00 13.88667 C 8.8 g/m*3 13.89 C 0 km/h
212 11-10-2003 00:00:00 13.46833 C 8.93 g/m*3 13.47 C 0 km/h
213 12-10-2003 00:00:00 10.71157 C 6.94 g/m*3 10.71 C 0 km/h
214 13-10-2003 00:00:00 8.84417 C 6.18 g/m*3 8.84 C 0 km/h
215 14-10-2003 00:00:00 8.61774 C 5.57 g/m*3 8.62 C 0 km/h
216 15-10-2003 00:00:00 6.7392 C 5.15 g/m*3 6.74 C 0 km/h
217 16-10-2003 00:00:00 7.11532 C 5.35 g/m*3 7.12 C 0 km/h
218 17-10-2003 00:00:00 6.33417 C 4.84 g/m*3 6.33 C 0 km/h
219 18-10-2003 00:00:00 4.57667 C 4.79 g/m*3 4.58 C 0 km/h
220 19-10-2003 00:00:00 4.02333 C 4.99 g/m*3 4.02 C 0 km/h
221 20-10-2003 00:00:00 6.06833 C 5.39 g/m*3 6.07 C 0 km/h
222 21-10-2003 00:00:00 5.19853 C 5.43 g/m*3 5.2 C 0 km/h
223 22-10-2003 00:00:00 3.7873 C 5.48 g/m*3 3.79 C 0 km/h
224 23-10-2003 00:00:00 3.55476 C 3.96 g/m*3 3.55 C 0 km/h
225 24-10-2003 00:00:00 0.92869 C 3.4 g/m*3 0.93 C 0 km/h
Sensor: Nr:Datum:Temp:Abs-Feuchte:Windchill:Wind:
Aussen-T/F 226 25-10-2003 00:00:00 4.80331 C 4.49 g/m*3 4.8 C 0 km/h
227 26-10-2003 00:00:00 6.43361 C 5.2 g/m*3 6.43 C 0 km/h
228 27-10-2003 00:00:00 6.27667 C 5.5 g/m*3 6.28 C 0 km/h
229 28-10-2003 00:00:00 4.52667 C 4.92 g/m*3 4.53 C 0 km/h
230 29-10-2003 00:00:00 5.675 C 6.08 g/m*3 5.68 C 0 km/h
231 30-10-2003 00:00:00 5.9688 C 6.02 g/m*3 5.97 C 0 km/h
232 31-10-2003 00:00:00 7.1 C 6.8 g/m*3 7.1 C 0 km/h
233 01-11-2003 00:00:00 9.5144 C 6.99 g/m*3 9.51 C 0 km/h
234 02-11-2003 00:00:00 9.956 C 6.37 g/m*3 9.96 C 0 km/h
235 03-11-2003 00:00:00 12.28333 C 7.25 g/m*3 12.28 C 0 km/h
236 04-11-2003 00:00:00 9.815 C 6.84 g/m*3 9.82 C 0 km/h
237 05-11-2003 00:00:00 6.345 C 5.98 g/m*3 6.35 C 0 km/h
238 06-11-2003 00:00:00 4.63388 C 5.31 g/m*3 4.63 C 0 km/h
239 07-11-2003 00:00:00 5.57323 C 4.97 g/m*3 5.57 C 0 km/h
240 08-11-2003 00:00:00 6.66748 C 5.03 g/m*3 6.67 C 0 km/h
241 09-11-2003 00:00:00 5.94409 C 5.25 g/m*3 5.94 C 0 km/h
242 10-11-2003 00:00:00 6.52937 C 5.72 g/m*3 6.53 C 0 km/h
243 11-11-2003 00:00:00 5.2064 C 4.78 g/m*3 5.21 C 0 km/h
244 12-11-2003 00:00:00 5.06859 C 4.88 g/m*3 5.07 C 0 km/h
245 13-11-2003 00:00:00 7.195 C 5.99 g/m*3 7.2 C 0 km/h
246 14-11-2003 00:00:00 5.67167 C 5.63 g/m*3 5.67 C 0 km/h
247 15-11-2003 00:00:00 6.93719 C 5.98 g/m*3 6.94 C 0 km/h
248 16-11-2003 00:00:00 4.36532 C 5.7 g/m*3 4.37 C 0 km/h
249 17-11-2003 00:00:00 6.63361 C 5.71 g/m*3 6.63 C 0 km/h
250 18-11-2003 00:00:00 8.51967 C 7 g/m*3 8.52 C 0 km/h
Sensor: Nr:Datum:Temp:Abs-Feuchte:Windchill:Wind:
Aussen-T/F 251 19-11-2003 00:00:00 11.89837 C 7.86 g/m*3 11.9 C 0 km/h
252 20-11-2003 00:00:00 10.56167 C 7.07 g/m*3 10.56 C 0 km/h
253 21-11-2003 00:00:00 9.79083 C 6.66 g/m*3 9.79 C 0 km/h
254 22-11-2003 00:00:00 9.85167 C 6.99 g/m*3 9.85 C 0 km/h
255 23-11-2003 00:00:00 13.305 C 6.83 g/m*3 13.31 C 0 km/h
256 24-11-2003 00:00:00 13.64667 C 7.3 g/m*3 13.65 C 0 km/h
257 25-11-2003 00:00:00 11.82683 C 7.35 g/m*3 11.83 C 0 km/h
258 26-11-2003 00:00:00 9.87317 C 6.37 g/m*3 9.87 C 0 km/h
259 27-11-2003 00:00:00 7.63871 C 7.01 g/m*3 7.64 C 0 km/h
260 28-11-2003 00:00:00 5.24797 C 5.9 g/m*3 5.25 C 0 km/h
261 29-11-2003 00:00:00 3.545 C 4.95 g/m*3 3.55 C 0 km/h
262 30-11-2003 00:00:00 5.35833 C 5.77 g/m*3 5.36 C 0 km/h
263 01-12-2003 00:00:00 7.79167 C 6.28 g/m*3 7.79 C 0 km/h
264 02-12-2003 00:00:00 5.15833 C 5.56 g/m*3 5.16 C 0 km/h
265 03-12-2003 00:00:00 3.17273 C 5.32 g/m*3 3.17 C 0 km/h
266 04-12-2003 00:00:00 4.92258 C 5.43 g/m*3 4.92 C 0 km/h
267 05-12-2003 00:00:00 5.37787 C 5.04 g/m*3 5.38 C 0 km/h
268 06-12-2003 00:00:00 3.05124 C 4.26 g/m*3 3.05 C 0 km/h

Maximal/Minimal-Werte vom 24.02.2003 - 06.12.2003

Sensor Min Max Avg
Temp
(Aussen-T/F)
-5.5 °C
25-02-2003  07:21:09
36.2 °C
08-08-2003  16:43:01
14.62 °C
Abs-Feuchte
(Aussen-T/F)
3.06 g/m*3
23-03-2003  00:00:00
14.27 g/m*3
27-07-2003  00:00:00
8.24 g/m*3
Windchill
(Aussen-T/F)
0.93 C
24-10-2003  00:00:00
28.96 C
08-08-2003  00:00:00
14.87 C

Die Daten stammen von einer Davis Vantage Pro 2 Wetter-Station und werden unter Linux mit der Software wview2wettercgi und aufbereitet. Alle Angaben erfolgen ohne Gewähr für ihre Vollständigkeit oder Richtigkeit.
Kontakt: Rainer Krienke krienke@uni-koblenz.de . Meine Webseiten an der Uni Koblenz oder privat.
Version: $Revision: 0.78 $